createdAt,value
2019-03-20T00:00:23.094Z,13.25
2019-03-20T00:02:50.049Z,17.95
2019-03-20T00:05:16.938Z,13.83
2019-03-20T00:07:43.741Z,11.70
2019-03-20T00:10:10.718Z,14.03
2019-03-20T00:12:38.111Z,13.05
2019-03-20T00:15:05.794Z,12.28
2019-03-20T00:17:32.589Z,13.68
2019-03-20T00:19:59.358Z,12.73
2019-03-20T00:22:26.153Z,11.00
2019-03-20T00:24:52.947Z,12.40
2019-03-20T00:27:19.937Z,20.55
2019-03-20T00:29:46.720Z,21.87
2019-03-20T00:32:13.639Z,12.88
2019-03-20T00:34:40.484Z,16.95
2019-03-20T00:37:07.393Z,12.75
2019-03-20T00:39:34.230Z,19.75
2019-03-20T00:42:01.052Z,11.38
2019-03-20T00:44:27.830Z,14.75
2019-03-20T00:46:54.613Z,17.12
2019-03-20T00:49:21.393Z,12.43
2019-03-20T00:51:48.384Z,15.23
2019-03-20T00:54:15.157Z,21.02
2019-03-20T00:56:41.939Z,14.38
2019-03-20T00:59:08.921Z,14.35
2019-03-20T01:01:36.525Z,19.17
2019-03-20T01:04:03.568Z,20.92
2019-03-20T01:06:30.452Z,14.58
2019-03-20T01:08:57.230Z,14.10
2019-03-20T01:11:24.107Z,15.93
2019-03-20T01:13:50.974Z,23.62
2019-03-20T01:16:17.760Z,22.20
2019-03-20T01:18:44.671Z,12.07
2019-03-20T01:21:11.650Z,18.45
2019-03-20T01:23:38.529Z,16.30
2019-03-20T01:26:05.438Z,16.50
2019-03-20T01:28:32.246Z,20.02
2019-03-20T01:30:59.138Z,17.98
2019-03-20T01:33:25.917Z,15.32
2019-03-20T01:35:52.698Z,13.40
2019-03-20T01:38:19.495Z,10.72
2019-03-20T01:40:46.302Z,12.60
2019-03-20T01:43:13.183Z,20.35
2019-03-20T01:45:39.977Z,13.10
2019-03-20T01:48:06.985Z,15.78
2019-03-20T01:50:33.868Z,14.20
2019-03-20T01:53:00.657Z,14.65
2019-03-20T01:55:27.541Z,16.32
2019-03-20T01:57:54.516Z,15.25
2019-03-20T02:00:21.416Z,15.15
2019-03-20T02:02:48.305Z,11.08
2019-03-20T02:05:15.376Z,15.78
2019-03-20T02:07:42.450Z,13.15
2019-03-20T02:10:09.742Z,13.45
2019-03-20T02:12:36.756Z,16.05
2019-03-20T02:15:06.710Z,14.07
2019-03-20T02:17:33.510Z,12.53
2019-03-20T02:20:00.398Z,16.27
2019-03-20T02:22:27.432Z,15.55
2019-03-20T02:24:54.437Z,17.70
2019-03-20T02:27:21.250Z,18.73
2019-03-20T02:29:48.142Z,20.95
2019-03-20T02:32:14.937Z,27.48
2019-03-20T02:34:41.825Z,15.95
2019-03-20T02:37:08.636Z,13.10
2019-03-20T02:39:35.429Z,18.87
2019-03-20T02:42:02.476Z,16.17
2019-03-20T02:44:29.450Z,15.48
2019-03-20T02:46:56.549Z,15.85
2019-03-20T02:49:23.531Z,14.75
2019-03-20T02:51:50.325Z,15.70
2019-03-20T02:54:17.149Z,19.00
2019-03-20T02:56:44.229Z,17.27
2019-03-20T02:59:11.140Z,17.85
2019-03-20T03:01:38.022Z,14.58
2019-03-20T03:04:05.042Z,16.35
2019-03-20T03:06:31.919Z,17.95
2019-03-20T03:08:58.727Z,16.12
2019-03-20T03:11:25.609Z,18.52
2019-03-20T03:13:52.635Z,14.60
2019-03-20T03:16:19.626Z,15.93
2019-03-20T03:18:46.533Z,14.33
2019-03-20T03:21:13.416Z,17.80
2019-03-20T03:23:40.211Z,19.20
2019-03-20T03:26:07.035Z,15.20
2019-03-20T03:28:33.831Z,13.85
2019-03-20T03:31:00.717Z,14.35
2019-03-20T03:33:27.521Z,17.35
2019-03-20T03:35:54.313Z,24.65
2019-03-20T03:38:21.225Z,19.77
2019-03-20T03:40:48.277Z,16.80
2019-03-20T03:43:15.170Z,20.95
2019-03-20T03:45:42.071Z,24.63
2019-03-20T03:48:08.973Z,18.20
2019-03-20T03:50:35.852Z,21.23
2019-03-20T03:53:02.728Z,16.57
2019-03-20T03:55:29.610Z,18.57
2019-03-20T03:57:56.788Z,20.15
2019-03-20T04:00:23.698Z,20.57
2019-03-20T04:02:50.551Z,17.75
2019-03-20T04:05:17.450Z,14.90
2019-03-20T04:07:44.426Z,14.25
2019-03-20T04:10:11.745Z,17.85
2019-03-20T04:12:38.647Z,23.45
2019-03-20T04:15:06.946Z,19.82
2019-03-20T04:17:33.938Z,17.50
2019-03-20T04:20:01.209Z,19.30
2019-03-20T04:22:28.253Z,20.40
2019-03-20T04:24:55.068Z,20.75
2019-03-20T04:27:21.929Z,23.00
2019-03-20T04:29:48.818Z,24.40
2019-03-20T04:32:15.701Z,27.75
2019-03-20T04:34:42.498Z,28.25
2019-03-20T04:37:09.286Z,29.02
2019-03-20T04:39:36.061Z,23.00
2019-03-20T04:42:02.940Z,20.57
2019-03-20T04:44:29.844Z,20.75
2019-03-20T04:46:56.613Z,19.17
2019-03-20T04:49:23.378Z,15.88
2019-03-20T04:51:50.261Z,15.48
2019-03-20T04:54:17.059Z,16.85
2019-03-20T04:56:43.961Z,16.20
2019-03-20T04:59:10.849Z,22.60
2019-03-20T05:01:37.614Z,26.55
2019-03-20T05:04:04.602Z,25.60
2019-03-20T05:06:31.420Z,16.00
2019-03-20T05:08:58.310Z,17.30
2019-03-20T05:11:25.111Z,16.17
2019-03-20T05:13:51.901Z,16.40
2019-03-20T05:16:18.704Z,17.80
2019-03-20T05:18:45.482Z,21.73
2019-03-20T05:21:12.361Z,17.87
2019-03-20T05:23:39.141Z,18.25
2019-03-20T05:26:06.034Z,19.27
2019-03-20T05:28:32.825Z,19.55
2019-03-20T05:30:59.624Z,17.60
2019-03-20T05:33:26.495Z,22.25
2019-03-20T05:35:53.292Z,17.87
2019-03-20T05:38:20.057Z,19.50
2019-03-20T05:40:46.952Z,18.80
2019-03-20T05:43:13.726Z,18.92
2019-03-20T05:45:40.524Z,21.68
2019-03-20T05:48:07.397Z,15.43
2019-03-20T05:50:34.294Z,13.85
2019-03-20T05:53:01.161Z,13.13
2019-03-20T05:55:27.965Z,18.30
2019-03-20T05:57:54.850Z,16.90
2019-03-20T06:00:21.995Z,17.52
2019-03-20T06:02:48.885Z,26.75
2019-03-20T06:05:15.765Z,19.40
2019-03-20T06:07:42.674Z,22.13
2019-03-20T06:10:10.867Z,18.98
2019-03-20T06:12:37.774Z,19.80
2019-03-20T06:15:05.633Z,13.90
2019-03-20T06:17:32.437Z,20.70
2019-03-20T06:19:59.225Z,25.05
2019-03-20T06:22:26.034Z,20.40
2019-03-20T06:24:52.833Z,81.65
2019-03-20T06:27:19.628Z,35.80
2019-03-20T06:29:46.397Z,79.72
2019-03-20T06:32:13.303Z,40.75
2019-03-20T06:34:40.106Z,36.17
2019-03-20T06:37:06.922Z,56.68
2019-03-20T06:39:33.705Z,50.43
2019-03-20T06:42:00.505Z,53.80
2019-03-20T06:44:27.308Z,43.57
2019-03-20T06:46:54.229Z,44.77
2019-03-20T06:49:21.026Z,37.93
2019-03-20T06:51:47.847Z,27.50
2019-03-20T06:54:14.690Z,39.80
2019-03-20T06:56:41.564Z,36.60
2019-03-20T06:59:40.635Z,39.30
2019-03-20T07:02:07.633Z,38.67
2019-03-20T07:05:17.201Z,27.67
2019-03-20T07:07:44.606Z,16.90
2019-03-20T07:10:26.631Z,18.47
2019-03-20T07:12:53.429Z,20.60
2019-03-20T07:15:20.217Z,11.30
2019-03-20T07:17:47.019Z,13.70
2019-03-20T07:20:14.006Z,14.93
2019-03-20T07:22:40.914Z,17.53
2019-03-20T07:25:07.881Z,11.77
2019-03-20T07:27:34.662Z,13.87
2019-03-20T07:30:01.667Z,12.60
2019-03-20T07:32:30.075Z,16.23
2019-03-20T07:34:57.026Z,15.03
2019-03-20T07:37:23.924Z,13.63
2019-03-20T07:39:50.806Z,21.40
2019-03-20T07:42:17.601Z,14.00
2019-03-20T07:44:44.489Z,15.17
2019-03-20T07:47:11.273Z,13.07
2019-03-20T07:49:38.175Z,17.70
2019-03-20T07:52:05.155Z,11.60
2019-03-20T07:54:32.045Z,17.23
2019-03-20T07:56:58.928Z,14.30
2019-03-20T07:59:25.698Z,14.90
2019-03-20T08:01:52.592Z,16.57
2019-03-20T08:04:19.448Z,18.77
2019-03-20T08:06:46.316Z,17.30
2019-03-20T08:09:13.101Z,19.53
2019-03-20T08:11:39.971Z,19.40
2019-03-20T08:14:06.879Z,16.90
2019-03-20T08:16:33.877Z,14.10
2019-03-20T08:19:00.665Z,16.40
2019-03-20T08:21:27.441Z,13.13
2019-03-20T08:23:54.263Z,16.93
2019-03-20T08:26:21.133Z,15.23
2019-03-20T08:28:48.008Z,16.83
2019-03-20T08:31:15.065Z,12.00
2019-03-20T08:33:41.964Z,17.57
2019-03-20T08:36:08.878Z,15.27
2019-03-20T08:38:35.875Z,16.77
2019-03-20T08:41:02.846Z,17.73
2019-03-20T08:43:29.693Z,11.93
2019-03-20T08:45:56.708Z,14.23
2019-03-20T08:48:23.752Z,8.17
2019-03-20T08:50:50.627Z,10.73
2019-03-20T08:53:17.461Z,8.03
2019-03-20T08:55:44.546Z,6.30
2019-03-20T08:58:11.589Z,10.97
2019-03-20T09:00:38.595Z,13.27
2019-03-20T09:03:05.385Z,7.87
2019-03-20T09:05:32.265Z,9.60
2019-03-20T09:07:59.049Z,5.07
2019-03-20T09:10:25.933Z,7.53
2019-03-20T09:12:52.883Z,6.10
2019-03-20T09:15:19.869Z,10.10
2019-03-20T09:17:46.745Z,6.47
2019-03-20T09:20:14.102Z,7.23
2019-03-20T09:22:40.990Z,7.80
2019-03-20T09:25:09.758Z,8.93
2019-03-20T09:27:36.530Z,4.53
2019-03-20T09:30:04.574Z,6.57
2019-03-20T09:32:31.467Z,9.03
2019-03-20T09:34:58.250Z,7.03
2019-03-20T09:37:25.023Z,6.13
2019-03-20T09:39:51.808Z,5.93
2019-03-20T09:42:18.677Z,6.80
2019-03-20T09:44:45.589Z,4.80
2019-03-20T09:47:12.372Z,5.47
2019-03-20T09:49:39.179Z,8.57
2019-03-20T09:52:06.056Z,7.93
2019-03-20T09:54:33.046Z,7.20
2019-03-20T09:57:00.225Z,7.67
2019-03-20T09:59:27.013Z,8.17
2019-03-20T10:01:53.901Z,11.37
2019-03-20T10:04:20.787Z,5.37
2019-03-20T10:06:47.656Z,6.30
2019-03-20T10:09:14.558Z,6.80
2019-03-20T10:11:41.496Z,10.17
2019-03-20T10:14:08.419Z,6.17
2019-03-20T10:16:35.348Z,6.70
2019-03-20T10:19:02.178Z,6.17
2019-03-20T10:21:29.145Z,6.93
2019-03-20T10:23:56.104Z,10.20
2019-03-20T10:26:22.969Z,9.03
2019-03-20T10:28:49.800Z,8.97
2019-03-20T10:31:16.702Z,9.30
2019-03-20T10:33:43.510Z,8.70
2019-03-20T10:36:10.440Z,7.70
2019-03-20T10:38:37.318Z,5.37
2019-03-20T10:41:04.583Z,8.77
2019-03-20T10:43:31.410Z,9.70
2019-03-20T10:45:58.540Z,9.83
2019-03-20T10:48:25.468Z,9.00
2019-03-20T10:50:52.502Z,9.53
2019-03-20T10:53:19.417Z,10.33
2019-03-20T10:55:46.372Z,8.17
2019-03-20T10:58:13.379Z,10.90
2019-03-20T11:00:40.926Z,8.33
2019-03-20T11:03:08.040Z,7.07
2019-03-20T11:05:35.064Z,7.13
2019-03-20T11:08:01.985Z,8.27
2019-03-20T11:10:29.136Z,6.57
2019-03-20T11:12:56.278Z,6.20
2019-03-20T11:15:23.622Z,8.07
2019-03-20T11:17:50.661Z,5.40
2019-03-20T11:20:17.834Z,10.60
2019-03-20T11:22:45.257Z,5.00
2019-03-20T11:25:13.810Z,9.23
2019-03-20T11:27:40.937Z,6.40
2019-03-20T11:30:14.833Z,6.17
2019-03-20T11:32:41.846Z,5.93
2019-03-20T11:35:09.022Z,5.83
2019-03-20T11:37:35.934Z,9.10
2019-03-20T11:40:04.648Z,9.03
2019-03-20T11:42:31.582Z,7.00
2019-03-20T11:44:58.534Z,7.90
2019-03-20T11:47:25.559Z,8.40
2019-03-20T11:49:52.680Z,7.13
2019-03-20T11:52:19.886Z,5.97
2019-03-20T11:54:46.824Z,5.60
2019-03-20T11:57:13.654Z,5.73
2019-03-20T11:59:40.698Z,8.20
2019-03-20T12:02:07.741Z,7.40
2019-03-20T12:04:34.664Z,7.30
2019-03-20T12:07:01.478Z,7.70
2019-03-20T12:09:28.508Z,5.03
2019-03-20T12:11:55.543Z,8.70
2019-03-20T12:14:22.703Z,4.17
2019-03-20T12:16:49.657Z,7.10
2019-03-20T12:19:16.577Z,8.80
2019-03-20T12:21:43.497Z,5.10
2019-03-20T12:24:10.327Z,11.27
2019-03-20T12:26:37.374Z,4.47
2019-03-20T12:29:04.398Z,6.83
2019-03-20T12:31:31.420Z,7.40
2019-03-20T12:33:58.233Z,7.77
2019-03-20T12:36:25.064Z,6.50
2019-03-20T12:38:51.992Z,6.60
2019-03-20T12:41:19.032Z,7.60
2019-03-20T12:43:45.863Z,6.67
2019-03-20T12:46:12.890Z,5.50
2019-03-20T12:48:39.801Z,7.77
2019-03-20T12:51:06.837Z,5.90
2019-03-20T12:53:34.041Z,5.20
2019-03-20T12:56:00.898Z,5.90
2019-03-20T12:58:27.929Z,7.80
2019-03-20T13:00:55.058Z,8.07
2019-03-20T13:03:21.977Z,5.30
2019-03-20T13:05:48.810Z,5.23
2019-03-20T13:08:15.734Z,4.30
2019-03-20T13:10:42.907Z,4.73
2019-03-20T13:13:10.077Z,4.80
2019-03-20T13:15:37.196Z,6.07
2019-03-20T13:18:04.224Z,3.77
2019-03-20T13:20:31.258Z,5.60
2019-03-20T13:23:06.661Z,4.77
2019-03-20T13:25:33.625Z,2.63
2019-03-20T13:28:00.657Z,6.03
2019-03-20T13:30:31.165Z,6.80
2019-03-20T13:32:58.186Z,5.00
2019-03-20T13:35:25.128Z,8.27
2019-03-20T13:37:52.051Z,8.77
2019-03-20T13:40:19.089Z,4.10
2019-03-20T13:42:45.921Z,10.07
2019-03-20T13:45:13.939Z,4.53
2019-03-20T13:47:40.873Z,6.20
2019-03-20T13:50:09.593Z,6.13
2019-03-20T13:52:36.618Z,3.93
2019-03-20T13:55:04.202Z,6.17
2019-03-20T13:57:31.122Z,4.00
2019-03-20T13:59:58.069Z,6.03
2019-03-20T14:02:25.019Z,5.93
2019-03-20T14:04:51.934Z,7.00
2019-03-20T14:07:18.878Z,7.80
2019-03-20T14:09:45.801Z,6.00
2019-03-20T14:12:12.641Z,4.93
2019-03-20T14:14:39.568Z,3.93
2019-03-20T14:17:06.500Z,6.40
2019-03-20T14:19:33.426Z,6.67
2019-03-20T14:22:00.352Z,5.67
2019-03-20T14:24:27.281Z,6.73
2019-03-20T14:26:54.300Z,6.53
2019-03-20T14:29:21.202Z,7.47
2019-03-20T14:31:48.128Z,5.40
2019-03-20T14:34:14.955Z,5.53
2019-03-20T14:36:42.164Z,6.20
2019-03-20T14:39:09.177Z,4.77
2019-03-20T14:41:36.039Z,7.07
2019-03-20T14:44:03.398Z,8.13
2019-03-20T14:46:30.319Z,5.37
2019-03-20T14:48:57.335Z,5.27
2019-03-20T14:51:24.284Z,5.23
2019-03-20T14:53:51.433Z,9.70
2019-03-20T14:56:18.455Z,6.23
2019-03-20T14:58:45.846Z,4.33
2019-03-20T15:01:12.948Z,8.30
2019-03-20T15:03:39.961Z,7.47
2019-03-20T15:06:06.989Z,7.20
2019-03-20T15:08:34.112Z,8.60
2019-03-20T15:11:01.029Z,7.77
2019-03-20T15:13:28.048Z,7.20
2019-03-20T15:15:58.462Z,5.90
2019-03-20T15:18:25.520Z,7.53
2019-03-20T15:20:52.328Z,6.47
2019-03-20T15:23:19.139Z,8.30
2019-03-20T15:25:46.059Z,10.17
2019-03-20T15:28:12.986Z,10.47
2019-03-20T15:30:40.115Z,8.20
2019-03-20T15:33:07.230Z,6.10
2019-03-20T15:35:34.237Z,6.43
2019-03-20T15:38:01.177Z,7.00
2019-03-20T15:40:28.218Z,6.67
2019-03-20T15:42:55.259Z,7.23
2019-03-20T15:45:22.284Z,8.73
2019-03-20T15:47:49.431Z,9.57
2019-03-20T15:50:16.569Z,6.63
2019-03-20T15:52:43.615Z,11.00
2019-03-20T15:55:13.356Z,7.43
2019-03-20T15:57:40.513Z,6.53
2019-03-20T16:00:11.443Z,8.07
2019-03-20T16:02:38.375Z,8.67
2019-03-20T16:05:05.776Z,8.83
2019-03-20T16:07:32.829Z,6.70
2019-03-20T16:09:59.969Z,4.57
2019-03-20T16:12:26.802Z,7.50
2019-03-20T16:14:53.726Z,8.57
2019-03-20T16:17:20.681Z,10.20
2019-03-20T16:19:47.715Z,7.17
2019-03-20T16:22:14.849Z,8.83
2019-03-20T16:24:41.778Z,12.33
2019-03-20T16:27:08.708Z,12.53
2019-03-20T16:29:35.653Z,6.30
2019-03-20T16:32:02.681Z,10.13
2019-03-20T16:34:29.591Z,7.87
2019-03-20T16:36:56.401Z,8.40
2019-03-20T16:39:23.221Z,9.43
2019-03-20T16:41:50.247Z,6.20
2019-03-20T16:44:17.211Z,6.23
2019-03-20T16:46:44.827Z,7.70
2019-03-20T16:49:11.761Z,12.93
2019-03-20T16:51:38.792Z,7.70
2019-03-20T16:54:05.712Z,9.53
2019-03-20T16:56:32.640Z,10.13
2019-03-20T16:58:59.775Z,9.17
2019-03-20T17:01:26.594Z,9.07
2019-03-20T17:03:53.526Z,9.63
2019-03-20T17:06:20.438Z,10.80
2019-03-20T17:08:47.280Z,9.20
2019-03-20T17:11:14.293Z,11.37
2019-03-20T17:13:41.205Z,9.07
2019-03-20T17:16:08.241Z,11.53
2019-03-20T17:18:35.165Z,7.80
2019-03-20T17:21:02.168Z,10.50
2019-03-20T17:23:29.096Z,7.00
2019-03-20T17:25:56.125Z,8.10
2019-03-20T17:28:23.277Z,8.23
2019-03-20T17:30:50.706Z,6.43
2019-03-20T17:33:17.631Z,9.17
2019-03-20T17:35:44.768Z,11.63
2019-03-20T17:38:11.906Z,11.07
2019-03-20T17:40:38.921Z,8.50
2019-03-20T17:43:06.049Z,5.80
2019-03-20T17:45:33.987Z,9.67
2019-03-20T17:48:01.034Z,5.53
2019-03-20T17:50:28.352Z,6.30
2019-03-20T17:52:55.908Z,9.53
2019-03-20T17:55:22.948Z,6.93
2019-03-20T17:57:49.995Z,5.43
2019-03-20T18:00:21.383Z,6.53
2019-03-20T18:02:48.297Z,5.10
2019-03-20T18:05:15.220Z,5.57
2019-03-20T18:07:42.373Z,4.60
2019-03-20T18:10:09.212Z,8.40
2019-03-20T18:12:36.144Z,5.83
2019-03-20T18:15:04.853Z,8.83
2019-03-20T18:17:31.872Z,10.03
2019-03-20T18:19:58.808Z,5.20
2019-03-20T18:22:25.639Z,7.23
2019-03-20T18:24:52.572Z,7.77
2019-03-20T18:27:19.480Z,5.83
2019-03-20T18:29:46.345Z,4.70
2019-03-20T18:32:13.275Z,5.70
2019-03-20T18:34:40.198Z,9.30
2019-03-20T18:37:07.027Z,7.57
2019-03-20T18:39:34.053Z,9.97
2019-03-20T18:42:01.020Z,6.97
2019-03-20T18:44:27.858Z,10.63
2019-03-20T18:46:54.843Z,10.57
2019-03-20T18:49:21.724Z,12.10
2019-03-20T18:51:48.498Z,7.17
2019-03-20T18:54:15.454Z,15.50
2019-03-20T18:56:42.426Z,11.40
2019-03-20T18:59:09.222Z,13.27
2019-03-20T19:01:36.005Z,9.40
2019-03-20T19:04:03.009Z,8.43
2019-03-20T19:06:29.990Z,16.47
2019-03-20T19:08:56.778Z,24.53
2019-03-20T19:11:23.883Z,27.70
2019-03-20T19:13:50.878Z,33.50
2019-03-20T19:16:17.807Z,26.13
2019-03-20T19:18:44.728Z,25.17
2019-03-20T19:21:11.622Z,24.07
2019-03-20T19:23:38.601Z,11.00
2019-03-20T19:26:05.545Z,9.83
2019-03-20T19:28:32.557Z,12.10
2019-03-20T19:30:59.881Z,12.37
2019-03-20T19:33:26.774Z,8.47
2019-03-20T19:35:53.698Z,12.83
2019-03-20T19:38:20.681Z,7.07
2019-03-20T19:40:47.487Z,9.27
2019-03-20T19:43:14.377Z,9.13
2019-03-20T19:45:41.389Z,9.93
2019-03-20T19:48:08.207Z,7.73
2019-03-20T19:50:35.117Z,9.90
2019-03-20T19:53:02.114Z,10.10
2019-03-20T19:55:29.000Z,7.37
2019-03-20T19:57:55.877Z,10.20
2019-03-20T20:00:22.890Z,11.53
2019-03-20T20:02:49.781Z,6.87
2019-03-20T20:05:16.797Z,8.90
2019-03-20T20:07:43.786Z,10.47
2019-03-20T20:10:10.816Z,11.87
2019-03-20T20:12:37.694Z,9.47
2019-03-20T20:15:07.705Z,7.03
2019-03-20T20:17:34.606Z,10.97
2019-03-20T20:20:01.595Z,17.73
2019-03-20T20:22:28.376Z,12.87
2019-03-20T20:24:55.148Z,13.43
2019-03-20T20:27:21.949Z,12.10
2019-03-20T20:29:48.837Z,14.57
2019-03-20T20:32:15.948Z,11.93
2019-03-20T20:34:42.837Z,15.77
2019-03-20T20:37:09.641Z,12.55
2019-03-20T20:39:36.539Z,17.20
2019-03-20T20:42:03.542Z,18.62
2019-03-20T20:44:30.367Z,18.67
2019-03-20T20:46:57.136Z,19.65
2019-03-20T20:49:23.922Z,39.35
2019-03-20T20:51:50.717Z,21.00
2019-03-20T20:54:17.500Z,12.45
2019-03-20T20:56:44.435Z,14.73
2019-03-20T20:59:11.291Z,20.95
2019-03-20T21:01:38.163Z,16.25
2019-03-20T21:04:04.953Z,17.77
2019-03-20T21:06:31.757Z,17.60
2019-03-20T21:08:58.560Z,19.67
2019-03-20T21:11:25.352Z,19.87
2019-03-20T21:13:52.150Z,22.40
2019-03-20T21:16:19.688Z,16.93
2019-03-20T21:19:26.386Z,18.23
2019-03-20T21:22:41.170Z,13.68
2019-03-20T21:25:08.582Z,15.13
2019-03-20T21:28:27.080Z,11.63
2019-03-20T21:31:39.160Z,14.73
2019-03-20T21:35:01.917Z,10.93
2019-03-20T21:38:02.186Z,15.45
2019-03-20T21:40:30.961Z,13.72
2019-03-20T21:43:34.850Z,10.55
2019-03-20T21:46:42.898Z,14.45
2019-03-20T21:49:10.350Z,14.10
2019-03-20T21:51:37.676Z,11.50
2019-03-20T21:54:43.767Z,17.12
2019-03-20T21:57:44.087Z,15.38
2019-03-20T22:00:49.096Z,12.85
2019-03-20T22:03:16.431Z,18.50
2019-03-20T22:06:25.379Z,14.78
2019-03-20T22:08:52.726Z,20.20
2019-03-20T22:11:56.642Z,15.88
2019-03-20T22:14:23.977Z,17.45
2019-03-20T22:17:50.119Z,11.80
2019-03-20T22:20:29.418Z,15.32
2019-03-20T22:23:26.926Z,15.48
2019-03-20T22:26:27.985Z,16.32
2019-03-20T22:29:21.548Z,8.70
2019-03-20T22:32:10.640Z,12.85
2019-03-20T22:34:44.018Z,7.58
2019-03-20T22:37:11.873Z,13.22
2019-03-20T22:40:35.993Z,13.13
2019-03-20T22:43:29.681Z,13.70
2019-03-20T22:46:55.764Z,12.85
2019-03-20T22:49:48.115Z,9.60
2019-03-20T22:52:40.512Z,9.63
2019-03-20T22:55:24.275Z,9.90
2019-03-20T22:58:34.602Z,12.53
2019-03-20T23:01:02.118Z,10.25
2019-03-20T23:03:36.030Z,12.53
2019-03-20T23:06:03.600Z,10.28
2019-03-20T23:08:31.021Z,16.27
2019-03-20T23:10:58.432Z,13.72
2019-03-20T23:13:25.970Z,16.10
2019-03-20T23:15:53.543Z,17.50
2019-03-20T23:18:20.986Z,13.05
2019-03-20T23:20:48.317Z,15.55
2019-03-20T23:23:15.653Z,22.93
2019-03-20T23:25:43.208Z,15.60
2019-03-20T23:28:10.537Z,15.45
2019-03-20T23:30:37.936Z,16.27
2019-03-20T23:33:05.369Z,15.98
2019-03-20T23:35:32.775Z,19.77
2019-03-20T23:38:00.121Z,18.90
2019-03-20T23:40:27.437Z,17.48
2019-03-20T23:42:54.798Z,19.25
2019-03-20T23:45:22.209Z,18.48
2019-03-20T23:47:59.333Z,14.13
2019-03-20T23:50:26.747Z,12.80
2019-03-20T23:52:54.169Z,13.95
2019-03-20T23:55:21.504Z,15.70
2019-03-20T23:57:48.936Z,16.85
